Terminal Aerodrome Forecast
Issued by NWS Sioux Falls, SD

Home | Current Version | Previous Version | Graphics & Text | Print | Product List | Glossary On
Versions: 1 2 3 4 5 6 7 8 9 10 11 12 13 14 15 16 17 18 19 20
000
FTUS43 KFSD 102300
TAFFSD
TAF
KFSD 102320Z 1100/1124 16015G23KT P6SM SCT050 BKN150
     FM110200 16012KT P6SM SCT050 BKN150
     FM110900 17009KT P6SM SCT015 BKN080
      TEMPO 1112/1116 BKN015
     FM111600 18006KT P6SM SCT015 SCT100=

USA.gov is the U.S. government's official web portal to all federal, state and local government web resources and services.